sensor_id;sensor_type;location;lat;lon;timestamp;temperature;humidity
14555;DHT22;7364;50.870;4.722;2022-07-23T00:01:25;19.10;99.90
14555;DHT22;7364;50.870;4.722;2022-07-23T00:03:53;19.00;99.90
14555;DHT22;7364;50.870;4.722;2022-07-23T00:06:21;18.90;99.90
14555;DHT22;7364;50.870;4.722;2022-07-23T00:08:49;18.80;99.90
14555;DHT22;7364;50.870;4.722;2022-07-23T00:11:16;18.80;99.90
14555;DHT22;7364;50.870;4.722;2022-07-23T00:13:44;18.80;99.90
14555;DHT22;7364;50.870;4.722;2022-07-23T00:16:13;18.80;99.90
14555;DHT22;7364;50.870;4.722;2022-07-23T00:18:40;18.80;99.90
14555;DHT22;7364;50.870;4.722;2022-07-23T00:21:07;18.80;99.90
14555;DHT22;7364;50.870;4.722;2022-07-23T00:23:34;18.80;99.90
14555;DHT22;7364;50.870;4.722;2022-07-23T00:26:02;18.80;99.90
14555;DHT22;7364;50.870;4.722;2022-07-23T00:28:29;18.80;99.90
14555;DHT22;7364;50.870;4.722;2022-07-23T00:30:56;18.80;99.90
14555;DHT22;7364;50.870;4.722;2022-07-23T00:33:25;18.80;99.90
14555;DHT22;7364;50.870;4.722;2022-07-23T00:35:52;18.80;99.90
14555;DHT22;7364;50.870;4.722;2022-07-23T00:38:20;18.80;99.90
14555;DHT22;7364;50.870;4.722;2022-07-23T00:40:47;18.70;99.90
14555;DHT22;7364;50.870;4.722;2022-07-23T00:43:14;18.70;99.90
14555;DHT22;7364;50.870;4.722;2022-07-23T00:45:41;18.70;99.90
14555;DHT22;7364;50.870;4.722;2022-07-23T00:48:09;18.60;99.90
14555;DHT22;7364;50.870;4.722;2022-07-23T00:50:37;18.60;99.90
14555;DHT22;7364;50.870;4.722;2022-07-23T00:53:05;18.60;99.90
14555;DHT22;7364;50.870;4.722;2022-07-23T00:55:34;18.50;99.90
14555;DHT22;7364;50.870;4.722;2022-07-23T00:58:01;18.50;99.90
14555;DHT22;7364;50.870;4.722;2022-07-23T01:00:29;18.50;99.90
14555;DHT22;7364;50.870;4.722;2022-07-23T01:02:56;18.50;99.90
14555;DHT22;7364;50.870;4.722;2022-07-23T01:05:23;18.60;99.90
14555;DHT22;7364;50.870;4.722;2022-07-23T01:07:52;18.50;99.90
14555;DHT22;7364;50.870;4.722;2022-07-23T01:10:19;18.50;99.90
14555;DHT22;7364;50.870;4.722;2022-07-23T01:13:01;18.30;99.90
14555;DHT22;7364;50.870;4.722;2022-07-23T01:15:29;18.20;99.90
14555;DHT22;7364;50.870;4.722;2022-07-23T01:17:56;18.10;99.90
14555;DHT22;7364;50.870;4.722;2022-07-23T01:20:24;18.10;99.90
14555;DHT22;7364;50.870;4.722;2022-07-23T01:22:52;18.10;99.90
14555;DHT22;7364;50.870;4.722;2022-07-23T01:25:23;18.10;99.90
14555;DHT22;7364;50.870;4.722;2022-07-23T01:27:52;18.10;99.90
14555;DHT22;7364;50.870;4.722;2022-07-23T01:30:20;18.10;99.90
14555;DHT22;7364;50.870;4.722;2022-07-23T01:32:47;18.00;99.90
14555;DHT22;7364;50.870;4.722;2022-07-23T01:35:14;17.90;99.90
14555;DHT22;7364;50.870;4.722;2022-07-23T01:37:42;17.80;99.90
14555;DHT22;7364;50.870;4.722;2022-07-23T01:40:11;17.70;99.90
14555;DHT22;7364;50.870;4.722;2022-07-23T01:42:38;17.70;99.90
14555;DHT22;7364;50.870;4.722;2022-07-23T01:45:06;17.70;99.90
14555;DHT22;7364;50.870;4.722;2022-07-23T01:47:35;17.70;99.90
14555;DHT22;7364;50.870;4.722;2022-07-23T01:50:03;17.80;99.90
14555;DHT22;7364;50.870;4.722;2022-07-23T01:52:30;17.80;99.90
14555;DHT22;7364;50.870;4.722;2022-07-23T01:54:58;17.80;99.90
14555;DHT22;7364;50.870;4.722;2022-07-23T01:57:26;17.80;99.90
14555;DHT22;7364;50.870;4.722;2022-07-23T01:59:54;17.80;99.90
14555;DHT22;7364;50.870;4.722;2022-07-23T02:02:21;17.80;99.90
14555;DHT22;7364;50.870;4.722;2022-07-23T02:04:49;17.90;99.90
14555;DHT22;7364;50.870;4.722;2022-07-23T02:07:16;18.00;99.90
14555;DHT22;7364;50.870;4.722;2022-07-23T02:09:43;18.00;99.90
14555;DHT22;7364;50.870;4.722;2022-07-23T02:12:10;17.90;99.90
14555;DHT22;7364;50.870;4.722;2022-07-23T02:14:39;17.90;99.90
14555;DHT22;7364;50.870;4.722;2022-07-23T02:17:06;17.90;99.90
14555;DHT22;7364;50.870;4.722;2022-07-23T02:19:33;17.90;99.90
14555;DHT22;7364;50.870;4.722;2022-07-23T02:22:00;18.00;99.90
14555;DHT22;7364;50.870;4.722;2022-07-23T02:24:27;18.00;99.90
14555;DHT22;7364;50.870;4.722;2022-07-23T02:26:54;17.90;99.90
14555;DHT22;7364;50.870;4.722;2022-07-23T02:29:22;17.80;99.90
14555;DHT22;7364;50.870;4.722;2022-07-23T02:31:50;17.80;99.90
14555;DHT22;7364;50.870;4.722;2022-07-23T02:34:17;17.80;99.90
14555;DHT22;7364;50.870;4.722;2022-07-23T02:36:45;17.90;99.90
14555;DHT22;7364;50.870;4.722;2022-07-23T02:39:12;18.00;99.90
14555;DHT22;7364;50.870;4.722;2022-07-23T02:41:40;18.10;99.90
14555;DHT22;7364;50.870;4.722;2022-07-23T02:44:07;18.10;99.90
14555;DHT22;7364;50.870;4.722;2022-07-23T02:46:34;18.00;99.90
14555;DHT22;7364;50.870;4.722;2022-07-23T02:49:03;17.90;99.90
14555;DHT22;7364;50.870;4.722;2022-07-23T02:51:30;17.80;99.90
14555;DHT22;7364;50.870;4.722;2022-07-23T02:53:57;17.80;99.90
14555;DHT22;7364;50.870;4.722;2022-07-23T02:56:24;17.80;99.90
14555;DHT22;7364;50.870;4.722;2022-07-23T02:58:51;17.80;99.90
14555;DHT22;7364;50.870;4.722;2022-07-23T03:01:19;17.90;99.90
14555;DHT22;7364;50.870;4.722;2022-07-23T03:03:46;18.00;99.90
14555;DHT22;7364;50.870;4.722;2022-07-23T03:06:15;18.10;99.90
14555;DHT22;7364;50.870;4.722;2022-07-23T03:08:42;18.10;99.90
14555;DHT22;7364;50.870;4.722;2022-07-23T03:11:09;18.00;99.90
14555;DHT22;7364;50.870;4.722;2022-07-23T03:13:38;18.00;99.90
14555;DHT22;7364;50.870;4.722;2022-07-23T03:16:05;17.70;99.90
14555;DHT22;7364;50.870;4.722;2022-07-23T03:18:34;17.60;99.90
14555;DHT22;7364;50.870;4.722;2022-07-23T03:21:01;17.60;99.90
14555;DHT22;7364;50.870;4.722;2022-07-23T03:23:30;17.60;99.90
14555;DHT22;7364;50.870;4.722;2022-07-23T03:25:57;17.50;99.90
14555;DHT22;7364;50.870;4.722;2022-07-23T03:28:25;17.50;99.90
14555;DHT22;7364;50.870;4.722;2022-07-23T03:30:52;17.50;99.90
14555;DHT22;7364;50.870;4.722;2022-07-23T03:33:20;17.40;99.90
14555;DHT22;7364;50.870;4.722;2022-07-23T03:35:47;17.50;99.90
14555;DHT22;7364;50.870;4.722;2022-07-23T03:38:15;17.50;99.90
14555;DHT22;7364;50.870;4.722;2022-07-23T03:40:44;17.50;99.90
14555;DHT22;7364;50.870;4.722;2022-07-23T03:43:11;17.60;99.90
14555;DHT22;7364;50.870;4.722;2022-07-23T03:45:38;17.50;99.90
14555;DHT22;7364;50.870;4.722;2022-07-23T03:48:06;17.50;99.90
14555;DHT22;7364;50.870;4.722;2022-07-23T03:50:33;17.50;99.90
14555;DHT22;7364;50.870;4.722;2022-07-23T03:53:00;17.70;99.90
14555;DHT22;7364;50.870;4.722;2022-07-23T03:55:28;17.80;99.90
14555;DHT22;7364;50.870;4.722;2022-07-23T03:57:56;17.90;99.90
14555;DHT22;7364;50.870;4.722;2022-07-23T04:00:24;17.70;99.90
14555;DHT22;7364;50.870;4.722;2022-07-23T04:02:51;17.60;99.90
14555;DHT22;7364;50.870;4.722;2022-07-23T04:05:18;17.40;99.90
14555;DHT22;7364;50.870;4.722;2022-07-23T04:07:45;17.40;99.90
14555;DHT22;7364;50.870;4.722;2022-07-23T04:10:12;17.50;99.90
14555;DHT22;7364;50.870;4.722;2022-07-23T04:12:39;17.50;99.90
14555;DHT22;7364;50.870;4.722;2022-07-23T04:15:09;17.50;99.90
14555;DHT22;7364;50.870;4.722;2022-07-23T04:17:36;17.40;99.90
14555;DHT22;7364;50.870;4.722;2022-07-23T04:20:04;17.40;99.90
14555;DHT22;7364;50.870;4.722;2022-07-23T04:22:31;17.40;99.90
14555;DHT22;7364;50.870;4.722;2022-07-23T04:24:58;17.30;99.90
14555;DHT22;7364;50.870;4.722;2022-07-23T04:27:26;17.40;99.90
14555;DHT22;7364;50.870;4.722;2022-07-23T04:29:54;17.40;99.90
14555;DHT22;7364;50.870;4.722;2022-07-23T04:32:23;17.40;99.90
14555;DHT22;7364;50.870;4.722;2022-07-23T04:34:50;17.40;99.90
14555;DHT22;7364;50.870;4.722;2022-07-23T04:37:17;17.30;99.90
14555;DHT22;7364;50.870;4.722;2022-07-23T04:39:44;17.30;99.90
14555;DHT22;7364;50.870;4.722;2022-07-23T04:42:11;17.40;99.90
14555;DHT22;7364;50.870;4.722;2022-07-23T04:44:38;17.40;99.90
14555;DHT22;7364;50.870;4.722;2022-07-23T04:47:06;17.30;99.90
14555;DHT22;7364;50.870;4.722;2022-07-23T04:49:34;17.40;99.90
14555;DHT22;7364;50.870;4.722;2022-07-23T04:52:02;17.20;99.90
14555;DHT22;7364;50.870;4.722;2022-07-23T04:54:29;17.30;99.90
14555;DHT22;7364;50.870;4.722;2022-07-23T04:56:58;17.40;99.90
14555;DHT22;7364;50.870;4.722;2022-07-23T04:59:25;17.40;99.90
14555;DHT22;7364;50.870;4.722;2022-07-23T05:01:52;17.40;99.90
14555;DHT22;7364;50.870;4.722;2022-07-23T05:04:19;17.50;99.90
14555;DHT22;7364;50.870;4.722;2022-07-23T05:06:48;17.40;99.90
14555;DHT22;7364;50.870;4.722;2022-07-23T05:09:15;17.30;99.90
14555;DHT22;7364;50.870;4.722;2022-07-23T05:11:42;17.40;99.90
14555;DHT22;7364;50.870;4.722;2022-07-23T05:14:09;17.40;99.90
14555;DHT22;7364;50.870;4.722;2022-07-23T05:16:38;17.50;99.90
14555;DHT22;7364;50.870;4.722;2022-07-23T05:19:05;17.40;99.90
14555;DHT22;7364;50.870;4.722;2022-07-23T05:21:32;17.50;99.90
14555;DHT22;7364;50.870;4.722;2022-07-23T05:24:01;17.50;99.90
14555;DHT22;7364;50.870;4.722;2022-07-23T05:26:28;17.40;99.90
14555;DHT22;7364;50.870;4.722;2022-07-23T05:28:55;17.40;99.90
14555;DHT22;7364;50.870;4.722;2022-07-23T05:31:22;17.30;99.90
14555;DHT22;7364;50.870;4.722;2022-07-23T05:33:51;17.30;99.90
14555;DHT22;7364;50.870;4.722;2022-07-23T05:36:18;17.40;99.90
14555;DHT22;7364;50.870;4.722;2022-07-23T05:38:45;17.40;99.90
14555;DHT22;7364;50.870;4.722;2022-07-23T05:41:14;17.40;99.90
14555;DHT22;7364;50.870;4.722;2022-07-23T05:43:41;17.60;99.90
14555;DHT22;7364;50.870;4.722;2022-07-23T05:46:08;17.60;99.90
14555;DHT22;7364;50.870;4.722;2022-07-23T05:48:35;17.50;99.90
14555;DHT22;7364;50.870;4.722;2022-07-23T05:51:02;17.60;99.90
14555;DHT22;7364;50.870;4.722;2022-07-23T05:53:32;17.70;99.90
14555;DHT22;7364;50.870;4.722;2022-07-23T05:56:00;17.90;99.90
14555;DHT22;7364;50.870;4.722;2022-07-23T05:58:28;18.20;99.90
14555;DHT22;7364;50.870;4.722;2022-07-23T06:00:55;18.10;99.90
14555;DHT22;7364;50.870;4.722;2022-07-23T06:03:22;18.10;99.90
14555;DHT22;7364;50.870;4.722;2022-07-23T06:05:52;18.40;99.90
14555;DHT22;7364;50.870;4.722;2022-07-23T06:08:19;18.60;99.90
14555;DHT22;7364;50.870;4.722;2022-07-23T06:10:46;18.90;99.90
14555;DHT22;7364;50.870;4.722;2022-07-23T06:13:13;18.80;99.90
14555;DHT22;7364;50.870;4.722;2022-07-23T06:15:42;18.80;99.90
14555;DHT22;7364;50.870;4.722;2022-07-23T06:18:09;18.90;99.90
14555;DHT22;7364;50.870;4.722;2022-07-23T06:20:37;19.10;99.90
14555;DHT22;7364;50.870;4.722;2022-07-23T06:23:04;19.20;99.90
14555;DHT22;7364;50.870;4.722;2022-07-23T06:25:31;19.30;99.90
14555;DHT22;7364;50.870;4.722;2022-07-23T06:27:58;19.20;99.90
14555;DHT22;7364;50.870;4.722;2022-07-23T06:30:26;19.30;99.90
14555;DHT22;7364;50.870;4.722;2022-07-23T06:32:54;19.60;99.90
14555;DHT22;7364;50.870;4.722;2022-07-23T06:35:21;19.80;99.90
14555;DHT22;7364;50.870;4.722;2022-07-23T06:37:48;20.00;99.90
14555;DHT22;7364;50.870;4.722;2022-07-23T06:40:15;20.10;99.90
14555;DHT22;7364;50.870;4.722;2022-07-23T06:42:43;20.10;99.90
14555;DHT22;7364;50.870;4.722;2022-07-23T06:45:10;19.70;99.90
14555;DHT22;7364;50.870;4.722;2022-07-23T06:47:37;19.60;99.90
14555;DHT22;7364;50.870;4.722;2022-07-23T06:50:08;19.90;99.90
14555;DHT22;7364;50.870;4.722;2022-07-23T06:52:35;20.10;99.90
14555;DHT22;7364;50.870;4.722;2022-07-23T06:55:03;20.20;99.90
14555;DHT22;7364;50.870;4.722;2022-07-23T06:57:30;19.60;99.90
14555;DHT22;7364;50.870;4.722;2022-07-23T06:59:58;19.30;99.90
14555;DHT22;7364;50.870;4.722;2022-07-23T07:02:26;19.20;99.90
14555;DHT22;7364;50.870;4.722;2022-07-23T07:04:53;19.50;99.90
14555;DHT22;7364;50.870;4.722;2022-07-23T07:07:23;19.90;99.90
14555;DHT22;7364;50.870;4.722;2022-07-23T07:09:50;20.20;99.90
14555;DHT22;7364;50.870;4.722;2022-07-23T07:12:17;20.50;99.90
14555;DHT22;7364;50.870;4.722;2022-07-23T07:14:45;20.80;99.90
14555;DHT22;7364;50.870;4.722;2022-07-23T07:17:12;20.60;99.90
14555;DHT22;7364;50.870;4.722;2022-07-23T07:19:41;20.10;99.90
14555;DHT22;7364;50.870;4.722;2022-07-23T07:22:08;20.00;99.90
14555;DHT22;7364;50.870;4.722;2022-07-23T07:24:36;19.70;99.90
14555;DHT22;7364;50.870;4.722;2022-07-23T07:27:04;19.60;99.90
14555;DHT22;7364;50.870;4.722;2022-07-23T07:29:31;19.60;99.90
14555;DHT22;7364;50.870;4.722;2022-07-23T07:31:58;19.70;99.90
14555;DHT22;7364;50.870;4.722;2022-07-23T07:34:26;20.10;99.90
14555;DHT22;7364;50.870;4.722;2022-07-23T07:36:54;20.50;99.90
14555;DHT22;7364;50.870;4.722;2022-07-23T07:39:21;20.90;99.90
14555;DHT22;7364;50.870;4.722;2022-07-23T07:41:49;21.20;99.90
14555;DHT22;7364;50.870;4.722;2022-07-23T07:44:17;21.20;99.90
14555;DHT22;7364;50.870;4.722;2022-07-23T07:46:44;21.30;99.90
14555;DHT22;7364;50.870;4.722;2022-07-23T07:49:11;20.70;99.90
14555;DHT22;7364;50.870;4.722;2022-07-23T07:51:39;20.90;99.90
14555;DHT22;7364;50.870;4.722;2022-07-23T07:54:06;20.80;99.90
14555;DHT22;7364;50.870;4.722;2022-07-23T07:56:33;20.70;99.90
14555;DHT22;7364;50.870;4.722;2022-07-23T07:59:02;20.80;99.90
14555;DHT22;7364;50.870;4.722;2022-07-23T08:01:29;20.80;99.90
14555;DHT22;7364;50.870;4.722;2022-07-23T08:03:58;20.80;99.90
14555;DHT22;7364;50.870;4.722;2022-07-23T08:06:25;20.60;99.90
14555;DHT22;7364;50.870;4.722;2022-07-23T08:08:52;20.50;99.90
14555;DHT22;7364;50.870;4.722;2022-07-23T08:11:19;20.60;99.90
14555;DHT22;7364;50.870;4.722;2022-07-23T08:13:47;20.30;99.90
14555;DHT22;7364;50.870;4.722;2022-07-23T08:16:18;20.40;99.90
14555;DHT22;7364;50.870;4.722;2022-07-23T08:18:45;20.80;99.90
14555;DHT22;7364;50.870;4.722;2022-07-23T08:21:12;21.00;99.90
14555;DHT22;7364;50.870;4.722;2022-07-23T08:23:41;21.00;99.90
14555;DHT22;7364;50.870;4.722;2022-07-23T08:26:08;21.30;99.90
14555;DHT22;7364;50.870;4.722;2022-07-23T08:28:35;21.50;99.90
14555;DHT22;7364;50.870;4.722;2022-07-23T08:31:03;21.40;99.90
14555;DHT22;7364;50.870;4.722;2022-07-23T08:33:34;21.00;99.90
14555;DHT22;7364;50.870;4.722;2022-07-23T08:36:03;21.00;99.90
14555;DHT22;7364;50.870;4.722;2022-07-23T08:38:30;21.10;99.90
14555;DHT22;7364;50.870;4.722;2022-07-23T08:40:58;21.20;99.90
14555;DHT22;7364;50.870;4.722;2022-07-23T08:43:28;21.20;99.90
14555;DHT22;7364;50.870;4.722;2022-07-23T08:45:58;21.40;99.90
14555;DHT22;7364;50.870;4.722;2022-07-23T08:48:27;21.60;99.90
14555;DHT22;7364;50.870;4.722;2022-07-23T08:50:57;21.90;99.90
14555;DHT22;7364;50.870;4.722;2022-07-23T08:53:28;22.50;99.90
14555;DHT22;7364;50.870;4.722;2022-07-23T08:55:58;22.70;99.90
14555;DHT22;7364;50.870;4.722;2022-07-23T08:58:27;22.90;99.90
14555;DHT22;7364;50.870;4.722;2022-07-23T09:00:56;22.20;99.90
14555;DHT22;7364;50.870;4.722;2022-07-23T09:03:25;22.20;99.90
14555;DHT22;7364;50.870;4.722;2022-07-23T09:05:53;22.60;99.90
14555;DHT22;7364;50.870;4.722;2022-07-23T09:08:23;22.40;99.90
14555;DHT22;7364;50.870;4.722;2022-07-23T09:10:52;22.80;99.90
14555;DHT22;7364;50.870;4.722;2022-07-23T09:13:32;22.90;99.90
14555;DHT22;7364;50.870;4.722;2022-07-23T09:16:01;23.10;99.90
14555;DHT22;7364;50.870;4.722;2022-07-23T09:18:33;23.30;99.90
14555;DHT22;7364;50.870;4.722;2022-07-23T09:21:09;23.10;99.90
14555;DHT22;7364;50.870;4.722;2022-07-23T09:23:42;22.60;99.90
14555;DHT22;7364;50.870;4.722;2022-07-23T09:26:22;22.60;99.90
14555;DHT22;7364;50.870;4.722;2022-07-23T09:28:52;22.30;99.90
14555;DHT22;7364;50.870;4.722;2022-07-23T09:31:20;22.50;99.90
14555;DHT22;7364;50.870;4.722;2022-07-23T09:33:47;22.50;99.90
14555;DHT22;7364;50.870;4.722;2022-07-23T09:36:15;22.50;99.90
14555;DHT22;7364;50.870;4.722;2022-07-23T09:38:50;22.60;99.90
14555;DHT22;7364;50.870;4.722;2022-07-23T09:41:18;22.80;99.90
14555;DHT22;7364;50.870;4.722;2022-07-23T09:43:45;23.40;99.90
14555;DHT22;7364;50.870;4.722;2022-07-23T09:46:19;23.60;99.90
14555;DHT22;7364;50.870;4.722;2022-07-23T09:48:47;23.70;99.90
14555;DHT22;7364;50.870;4.722;2022-07-23T09:51:15;24.00;99.90
14555;DHT22;7364;50.870;4.722;2022-07-23T09:53:47;24.10;99.90
14555;DHT22;7364;50.870;4.722;2022-07-23T09:56:16;24.30;99.90
14555;DHT22;7364;50.870;4.722;2022-07-23T09:58:44;24.50;99.90
14555;DHT22;7364;50.870;4.722;2022-07-23T10:01:15;24.50;99.80
14555;DHT22;7364;50.870;4.722;2022-07-23T10:03:45;24.30;99.90
14555;DHT22;7364;50.870;4.722;2022-07-23T10:06:14;24.60;99.30
14555;DHT22;7364;50.870;4.722;2022-07-23T10:08:42;24.30;98.80
14555;DHT22;7364;50.870;4.722;2022-07-23T10:11:12;24.10;98.80
14555;DHT22;7364;50.870;4.722;2022-07-23T10:13:42;24.30;97.20
14555;DHT22;7364;50.870;4.722;2022-07-23T10:16:21;24.10;97.00
14555;DHT22;7364;50.870;4.722;2022-07-23T10:18:49;23.60;97.50
14555;DHT22;7364;50.870;4.722;2022-07-23T10:21:21;23.30;98.50
14555;DHT22;7364;50.870;4.722;2022-07-23T10:24:07;23.40;98.50
14555;DHT22;7364;50.870;4.722;2022-07-23T10:26:44;23.40;98.20
14555;DHT22;7364;50.870;4.722;2022-07-23T10:29:31;23.40;98.00
14555;DHT22;7364;50.870;4.722;2022-07-23T10:32:04;23.80;98.70
14555;DHT22;7364;50.870;4.722;2022-07-23T10:34:44;24.70;97.10
14555;DHT22;7364;50.870;4.722;2022-07-23T10:37:16;25.10;95.30
14555;DHT22;7364;50.870;4.722;2022-07-23T10:40:08;26.10;94.10
14555;DHT22;7364;50.870;4.722;2022-07-23T10:42:37;27.10;92.60
14555;DHT22;7364;50.870;4.722;2022-07-23T10:45:28;27.30;90.90
14555;DHT22;7364;50.870;4.722;2022-07-23T10:48:08;27.00;90.40
14555;DHT22;7364;50.870;4.722;2022-07-23T10:50:40;27.70;90.40
14555;DHT22;7364;50.870;4.722;2022-07-23T10:53:15;28.80;86.90
14555;DHT22;7364;50.870;4.722;2022-07-23T10:55:45;29.20;83.90
14555;DHT22;7364;50.870;4.722;2022-07-23T10:58:22;30.10;81.00
14555;DHT22;7364;50.870;4.722;2022-07-23T11:00:51;30.60;78.10
14555;DHT22;7364;50.870;4.722;2022-07-23T11:03:33;29.20;79.30
14555;DHT22;7364;50.870;4.722;2022-07-23T11:06:02;28.80;80.90
14555;DHT22;7364;50.870;4.722;2022-07-23T11:08:30;28.30;81.80
14555;DHT22;7364;50.870;4.722;2022-07-23T11:11:09;27.70;83.50
14555;DHT22;7364;50.870;4.722;2022-07-23T11:13:45;29.20;82.70
14555;DHT22;7364;50.870;4.722;2022-07-23T11:16:18;30.00;78.80
14555;DHT22;7364;50.870;4.722;2022-07-23T11:19:06;30.10;76.70
14555;DHT22;7364;50.870;4.722;2022-07-23T11:21:52;29.70;75.30
14555;DHT22;7364;50.870;4.722;2022-07-23T11:24:24;31.00;74.70
14555;DHT22;7364;50.870;4.722;2022-07-23T11:27:00;32.10;72.00
14555;DHT22;7364;50.870;4.722;2022-07-23T11:29:47;32.40;70.00
14555;DHT22;7364;50.870;4.722;2022-07-23T11:32:42;33.50;66.30
14555;DHT22;7364;50.870;4.722;2022-07-23T11:35:27;34.60;63.90
14555;DHT22;7364;50.870;4.722;2022-07-23T11:38:04;34.90;62.70
14555;DHT22;7364;50.870;4.722;2022-07-23T11:40:32;35.70;59.40
14555;DHT22;7364;50.870;4.722;2022-07-23T11:43:01;35.70;58.60
14555;DHT22;7364;50.870;4.722;2022-07-23T11:45:33;36.10;56.60
14555;DHT22;7364;50.870;4.722;2022-07-23T11:48:03;37.00;55.20
14555;DHT22;7364;50.870;4.722;2022-07-23T11:50:33;37.20;54.50
14555;DHT22;7364;50.870;4.722;2022-07-23T11:53:00;37.70;54.20
14555;DHT22;7364;50.870;4.722;2022-07-23T11:55:28;37.60;53.30
14555;DHT22;7364;50.870;4.722;2022-07-23T11:57:55;37.90;53.00
14555;DHT22;7364;50.870;4.722;2022-07-23T12:00:24;37.90;51.80
14555;DHT22;7364;50.870;4.722;2022-07-23T12:02:54;38.40;50.50
14555;DHT22;7364;50.870;4.722;2022-07-23T12:05:25;40.00;48.10
14555;DHT22;7364;50.870;4.722;2022-07-23T12:07:53;38.40;47.60
14555;DHT22;7364;50.870;4.722;2022-07-23T12:10:22;38.90;48.80
14555;DHT22;7364;50.870;4.722;2022-07-23T12:12:52;39.30;48.70
14555;DHT22;7364;50.870;4.722;2022-07-23T12:15:21;40.80;45.60
14555;DHT22;7364;50.870;4.722;2022-07-23T12:17:51;41.60;45.40
14555;DHT22;7364;50.870;4.722;2022-07-23T12:20:21;40.70;43.90
14555;DHT22;7364;50.870;4.722;2022-07-23T12:22:55;41.10;43.90
14555;DHT22;7364;50.870;4.722;2022-07-23T12:25:25;39.30;44.80
14555;DHT22;7364;50.870;4.722;2022-07-23T12:28:02;38.30;46.60
14555;DHT22;7364;50.870;4.722;2022-07-23T12:30:32;38.30;46.40
14555;DHT22;7364;50.870;4.722;2022-07-23T12:33:00;39.00;46.10
14555;DHT22;7364;50.870;4.722;2022-07-23T12:35:33;39.40;45.80
14555;DHT22;7364;50.870;4.722;2022-07-23T12:38:05;39.10;46.00
14555;DHT22;7364;50.870;4.722;2022-07-23T12:40:33;39.70;45.50
14555;DHT22;7364;50.870;4.722;2022-07-23T12:43:03;39.50;45.60
14555;DHT22;7364;50.870;4.722;2022-07-23T12:45:44;39.80;45.20
14555;DHT22;7364;50.870;4.722;2022-07-23T12:48:24;38.60;45.70
14555;DHT22;7364;50.870;4.722;2022-07-23T12:50:53;39.10;46.40
14555;DHT22;7364;50.870;4.722;2022-07-23T12:53:25;38.10;46.50
14555;DHT22;7364;50.870;4.722;2022-07-23T12:55:59;38.10;46.10
14555;DHT22;7364;50.870;4.722;2022-07-23T12:58:40;38.50;46.20
14555;DHT22;7364;50.870;4.722;2022-07-23T13:01:08;39.70;44.70
14555;DHT22;7364;50.870;4.722;2022-07-23T13:03:38;40.50;43.70
14555;DHT22;7364;50.870;4.722;2022-07-23T13:06:07;41.50;42.60
14555;DHT22;7364;50.870;4.722;2022-07-23T13:08:38;42.50;41.20
14555;DHT22;7364;50.870;4.722;2022-07-23T13:11:06;43.50;40.20
14555;DHT22;7364;50.870;4.722;2022-07-23T13:13:35;43.50;39.30
14555;DHT22;7364;50.870;4.722;2022-07-23T13:16:02;44.00;39.00
14555;DHT22;7364;50.870;4.722;2022-07-23T13:18:30;45.30;39.10
14555;DHT22;7364;50.870;4.722;2022-07-23T13:20:57;46.40;37.10
14555;DHT22;7364;50.870;4.722;2022-07-23T13:23:25;47.00;35.80
14555;DHT22;7364;50.870;4.722;2022-07-23T13:25:54;47.00;35.70
14555;DHT22;7364;50.870;4.722;2022-07-23T13:28:22;47.70;33.80
14555;DHT22;7364;50.870;4.722;2022-07-23T13:30:50;47.40;33.50
14555;DHT22;7364;50.870;4.722;2022-07-23T13:33:18;47.90;33.50
14555;DHT22;7364;50.870;4.722;2022-07-23T13:35:47;46.40;33.70
14555;DHT22;7364;50.870;4.722;2022-07-23T13:38:15;46.80;34.30
14555;DHT22;7364;50.870;4.722;2022-07-23T13:40:44;46.60;33.20
14555;DHT22;7364;50.870;4.722;2022-07-23T13:43:15;46.90;34.20
14555;DHT22;7364;50.870;4.722;2022-07-23T13:45:43;44.00;35.40
14555;DHT22;7364;50.870;4.722;2022-07-23T13:48:11;45.10;35.30
14555;DHT22;7364;50.870;4.722;2022-07-23T13:50:39;45.30;34.70
14555;DHT22;7364;50.870;4.722;2022-07-23T13:53:10;45.60;34.40
14555;DHT22;7364;50.870;4.722;2022-07-23T13:55:38;46.60;34.10
14555;DHT22;7364;50.870;4.722;2022-07-23T13:58:06;47.70;32.20
14555;DHT22;7364;50.870;4.722;2022-07-23T14:00:37;46.40;32.70
14555;DHT22;7364;50.870;4.722;2022-07-23T14:03:05;47.80;32.20
14555;DHT22;7364;50.870;4.722;2022-07-23T14:05:33;46.50;32.40
14555;DHT22;7364;50.870;4.722;2022-07-23T14:08:00;45.00;33.10
14555;DHT22;7364;50.870;4.722;2022-07-23T14:10:27;43.40;34.70
14555;DHT22;7364;50.870;4.722;2022-07-23T14:12:55;43.70;35.00
14555;DHT22;7364;50.870;4.722;2022-07-23T14:15:23;43.70;34.60
14555;DHT22;7364;50.870;4.722;2022-07-23T14:17:57;43.70;34.90
14555;DHT22;7364;50.870;4.722;2022-07-23T14:20:25;43.30;34.90
14555;DHT22;7364;50.870;4.722;2022-07-23T14:22:52;43.30;35.10
14555;DHT22;7364;50.870;4.722;2022-07-23T14:25:21;43.00;35.40
14555;DHT22;7364;50.870;4.722;2022-07-23T14:27:49;42.10;36.30
14555;DHT22;7364;50.870;4.722;2022-07-23T14:30:16;41.40;36.90
14555;DHT22;7364;50.870;4.722;2022-07-23T14:32:43;40.40;37.60
14555;DHT22;7364;50.870;4.722;2022-07-23T14:35:12;39.90;38.80
14555;DHT22;7364;50.870;4.722;2022-07-23T14:37:39;38.70;40.40
14555;DHT22;7364;50.870;4.722;2022-07-23T14:40:07;39.60;40.20
14555;DHT22;7364;50.870;4.722;2022-07-23T14:42:34;41.50;38.10
14555;DHT22;7364;50.870;4.722;2022-07-23T14:45:02;42.80;37.30
14555;DHT22;7364;50.870;4.722;2022-07-23T14:47:30;44.20;35.90
14555;DHT22;7364;50.870;4.722;2022-07-23T14:49:57;42.50;36.20
14555;DHT22;7364;50.870;4.722;2022-07-23T14:52:26;40.80;38.50
14555;DHT22;7364;50.870;4.722;2022-07-23T14:54:56;40.20;39.10
14555;DHT22;7364;50.870;4.722;2022-07-23T14:57:25;41.00;39.20
14555;DHT22;7364;50.870;4.722;2022-07-23T14:59:52;39.60;39.60
14555;DHT22;7364;50.870;4.722;2022-07-23T15:02:20;39.90;40.10
14555;DHT22;7364;50.870;4.722;2022-07-23T15:04:47;40.90;38.60
14555;DHT22;7364;50.870;4.722;2022-07-23T15:07:14;42.40;37.40
14555;DHT22;7364;50.870;4.722;2022-07-23T15:09:43;42.80;36.00
14555;DHT22;7364;50.870;4.722;2022-07-23T15:12:10;42.90;37.00
14555;DHT22;7364;50.870;4.722;2022-07-23T15:14:37;42.50;36.70
14555;DHT22;7364;50.870;4.722;2022-07-23T15:17:04;42.80;37.00
14555;DHT22;7364;50.870;4.722;2022-07-23T15:19:31;43.80;35.60
14555;DHT22;7364;50.870;4.722;2022-07-23T15:21:59;43.50;35.70
14555;DHT22;7364;50.870;4.722;2022-07-23T15:24:26;43.20;36.00
14555;DHT22;7364;50.870;4.722;2022-07-23T15:26:54;43.20;35.80
14555;DHT22;7364;50.870;4.722;2022-07-23T15:29:22;44.00;35.40
14555;DHT22;7364;50.870;4.722;2022-07-23T15:31:49;44.60;34.90
14555;DHT22;7364;50.870;4.722;2022-07-23T15:34:16;44.60;34.30
14555;DHT22;7364;50.870;4.722;2022-07-23T15:36:45;44.80;34.30
14555;DHT22;7364;50.870;4.722;2022-07-23T15:39:13;42.40;35.10
14555;DHT22;7364;50.870;4.722;2022-07-23T15:41:41;39.90;37.90
14555;DHT22;7364;50.870;4.722;2022-07-23T15:44:10;40.00;38.70
14555;DHT22;7364;50.870;4.722;2022-07-23T15:46:37;40.10;37.70
14555;DHT22;7364;50.870;4.722;2022-07-23T15:49:04;39.80;37.80
14555;DHT22;7364;50.870;4.722;2022-07-23T15:51:34;38.60;39.10
14555;DHT22;7364;50.870;4.722;2022-07-23T15:54:01;36.80;41.60
14555;DHT22;7364;50.870;4.722;2022-07-23T15:56:28;36.60;42.40